Time;durP1;ratioP1;P1;durP2;ratioP2;P2;SDS_P1;SDS_P2;PMS_P1;PMS_P2;Temp;Humidity;BMP_temperature;BMP_pressure;BME280_temperature;BME280_humidity;BME280_pressure;Samples;Min_cycle;Max_cycle;Signal;HPM_P1;HPM_P2
2022/06/24 00:00:08;;;;;;;2.45;1.75;;;20.00;92.70;;;;;;7371420;19;20963;-78
2022/06/24 00:02:33;;;;;;;2.03;1.90;;;19.90;92.80;;;;;;7375766;19;20347;-77
2022/06/24 00:05:00;;;;;;;2.42;1.80;;;19.90;93.20;;;;;;7370981;19;22149;-77
2022/06/24 00:07:26;;;;;;;2.05;1.85;;;19.90;93.70;;;;;;7372580;19;20598;-77
2022/06/24 00:09:52;;;;;;;1.90;1.80;;;19.80;93.70;;;;;;7372507;19;21030;-78
2022/06/24 00:12:19;;;;;;;1.63;1.52;;;19.80;94.90;;;;;;7374336;19;20380;-78
2022/06/24 00:14:45;;;;;;;2.22;2.00;;;19.80;94.50;;;;;;7372410;19;20931;-78
2022/06/24 00:17:12;;;;;;;2.10;1.90;;;19.70;95.70;;;;;;7371674;19;20371;-78
2022/06/24 00:19:55;;;;;;;2.10;1.80;;;19.60;96.60;;;;;;7375141;19;20353;-78
2022/06/24 00:22:20;;;;;;;1.90;1.80;;;19.50;97.60;;;;;;7374631;19;20407;-77
2022/06/24 00:24:46;;;;;;;1.75;1.65;;;19.50;97.80;;;;;;7373648;19;20720;-78
2022/06/24 00:27:22;;;;;;;2.40;2.03;;;19.40;97.80;;;;;;7371389;19;20352;-78
2022/06/24 00:29:48;;;;;;;2.05;1.88;;;19.40;98.90;;;;;;7370643;19;20341;-78
2022/06/24 00:32:14;;;;;;;2.05;1.80;;;19.40;99.40;;;;;;7374911;19;20337;-78
2022/06/24 00:34:40;;;;;;;1.83;1.70;;;19.40;99.70;;;;;;7370899;19;20328;-78
2022/06/24 00:37:24;;;;;;;2.05;1.85;;;19.30;99.80;;;;;;7369159;19;20332;-78
2022/06/24 00:39:54;;;;;;;2.05;1.65;;;19.30;99.90;;;;;;7373189;19;20381;-77
2022/06/24 00:42:20;;;;;;;1.90;1.80;;;19.30;99.90;;;;;;7384853;19;20352;-78
2022/06/24 00:44:55;;;;;;;2.07;1.90;;;19.30;99.90;;;;;;7379276;19;20317;-77
2022/06/24 00:47:21;;;;;;;3.22;1.95;;;19.20;99.90;;;;;;7380193;19;20726;-78
2022/06/24 00:49:47;;;;;;;1.93;1.73;;;19.20;99.90;;;;;;7379141;19;20448;-78
2022/06/24 00:52:14;;;;;;;1.80;1.70;;;19.10;99.90;;;;;;7379161;19;20332;-77
2022/06/24 00:54:42;;;;;;;1.92;1.83;;;19.00;99.90;;;;;;7374443;19;20337;-77
2022/06/24 00:57:08;;;;;;;2.22;2.03;;;19.00;99.90;;;;;;7379634;19;20353;-78
2022/06/24 00:59:34;;;;;;;2.25;1.77;;;19.00;99.90;;;;;;7378246;19;20325;-77
2022/06/24 01:02:05;;;;;;;2.00;1.90;;;18.90;99.90;;;;;;7378723;19;20336;-77
2022/06/24 01:04:32;;;;;;;2.13;1.92;;;18.90;99.90;;;;;;7380088;19;20308;-77
2022/06/24 01:06:57;;;;;;;3.10;1.90;;;18.90;99.90;;;;;;7375523;19;20935;-77
2022/06/24 01:09:23;;;;;;;2.35;1.70;;;18.90;99.90;;;;;;7381044;19;20344;-78
2022/06/24 01:11:48;;;;;;;3.70;1.90;;;18.80;99.90;;;;;;7379613;19;20871;-77
2022/06/24 01:14:14;;;;;;;3.47;1.70;;;18.80;99.90;;;;;;7378707;19;20411;-78
2022/06/24 01:16:39;;;;;;;2.00;1.80;;;18.80;99.90;;;;;;7373750;19;20357;-78
2022/06/24 01:19:07;;;;;;;2.70;2.00;;;18.80;99.90;;;;;;7380195;19;20360;-78
2022/06/24 01:21:39;;;;;;;2.33;2.13;;;18.80;99.90;;;;;;7380584;19;20304;-77
2022/06/24 01:24:08;;;;;;;2.70;2.10;;;18.80;99.90;;;;;;7278788;19;2004145;-78
2022/06/24 01:26:35;;;;;;;2.00;1.90;;;18.70;99.90;;;;;;7375327;19;20304;-77
2022/06/24 01:29:00;;;;;;;2.22;2.03;;;18.80;99.90;;;;;;7380691;19;20331;-77
2022/06/24 01:31:26;;;;;;;1.90;1.80;;;18.70;99.90;;;;;;7380188;19;20337;-78
2022/06/24 01:33:51;;;;;;;1.90;1.80;;;18.70;99.90;;;;;;7380279;19;20340;-77
2022/06/24 01:36:17;;;;;;;1.88;1.77;;;18.70;99.90;;;;;;7377419;19;20372;-77
2022/06/24 01:38:42;;;;;;;2.20;2.10;;;18.60;99.90;;;;;;7379607;19;20352;-78
2022/06/24 01:41:11;;;;;;;2.20;2.00;;;18.60;99.90;;;;;;7379270;19;20350;-77
2022/06/24 01:43:36;;;;;;;1.90;1.80;;;18.60;99.90;;;;;;7380413;19;20582;-78
2022/06/24 01:46:02;;;;;;;1.83;1.73;;;18.60;99.90;;;;;;7375061;19;20311;-78
2022/06/24 01:48:28;;;;;;;3.10;2.03;;;18.60;99.90;;;;;;7377412;19;20333;-77
2022/06/24 01:50:54;;;;;;;2.03;1.92;;;18.60;99.90;;;;;;7378769;19;20345;-78
2022/06/24 01:53:19;;;;;;;2.05;1.90;;;18.50;99.90;;;;;;7378385;19;21246;-77
2022/06/24 01:55:45;;;;;;;3.60;2.00;;;18.50;99.90;;;;;;7375919;19;20400;-78
2022/06/24 01:58:11;;;;;;;2.20;2.00;;;18.50;99.90;;;;;;7379006;19;20689;-78
2022/06/24 02:00:36;;;;;;;2.30;2.10;;;18.40;99.90;;;;;;7376886;19;20337;-78
2022/06/24 02:03:05;;;;;;;1.98;1.88;;;18.40;99.90;;;;;;7379346;19;20321;-78
2022/06/24 02:05:31;;;;;;;2.60;2.07;;;18.40;99.90;;;;;;7376343;19;20348;-77
2022/06/24 02:07:56;;;;;;;2.20;2.03;;;18.30;99.90;;;;;;7378305;19;20341;-77
2022/06/24 02:15:51;;;;;;;6.10;2.08;;;18.20;99.90;;;;;;7375711;19;20325;-78
2022/06/24 02:18:16;;;;;;;2.58;2.33;;;18.20;99.90;;;;;;7379159;19;20351;-77
2022/06/24 02:20:42;;;;;;;2.30;2.10;;;18.10;99.90;;;;;;7377210;19;20320;-78
2022/06/24 02:23:07;;;;;;;2.90;2.50;;;18.10;99.90;;;;;;7376036;19;20354;-78
2022/06/24 02:25:33;;;;;;;4.00;2.17;;;18.10;99.90;;;;;;7370037;19;20304;-78
2022/06/24 02:27:59;;;;;;;2.17;1.97;;;18.00;99.90;;;;;;7374452;19;20335;-78
2022/06/24 02:30:26;;;;;;;2.10;2.00;;;18.00;99.90;;;;;;7375129;19;20322;-78
2022/06/24 02:32:52;;;;;;;2.17;2.08;;;18.00;99.90;;;;;;7376004;19;20346;-78
2022/06/24 02:35:17;;;;;;;2.30;2.10;;;18.00;99.90;;;;;;7374399;19;20340;-78
2022/06/24 02:37:43;;;;;;;2.00;1.90;;;18.00;99.90;;;;;;7374261;19;20348;-78
2022/06/24 02:42:55;;;;;;;3.20;2.20;;;18.10;99.90;;;;;;7377731;19;21226;-78
2022/06/24 02:45:20;;;;;;;2.30;2.10;;;18.10;99.90;;;;;;7374736;19;20701;-77
2022/06/24 02:47:46;;;;;;;2.10;2.00;;;18.00;99.90;;;;;;7376484;19;20320;-78
2022/06/24 02:50:11;;;;;;;2.50;2.30;;;18.00;99.90;;;;;;7375594;19;20391;-78
2022/06/24 02:52:37;;;;;;;2.63;2.42;;;18.00;99.90;;;;;;7378164;19;20331;-78
2022/06/24 02:55:03;;;;;;;3.70;2.30;;;18.00;99.90;;;;;;7374266;19;21012;-78
2022/06/24 02:57:28;;;;;;;2.10;2.00;;;17.90;99.90;;;;;;7378157;19;20297;-78
2022/06/24 02:59:54;;;;;;;2.85;2.30;;;17.90;99.90;;;;;;7370780;19;20378;-77
2022/06/24 03:02:19;;;;;;;2.30;2.10;;;17.90;99.90;;;;;;7376920;19;20382;-77
2022/06/24 03:04:45;;;;;;;2.58;2.38;;;18.00;99.90;;;;;;7373225;19;20301;-78
2022/06/24 03:07:10;;;;;;;2.50;2.30;;;17.90;99.90;;;;;;7374667;19;20337;-78
2022/06/24 03:09:36;;;;;;;2.40;2.20;;;17.90;99.90;;;;;;7374641;19;20316;-79
2022/06/24 03:12:02;;;;;;;2.58;2.38;;;17.90;99.90;;;;;;7373472;19;20334;-78
2022/06/24 03:14:27;;;;;;;2.30;2.10;;;17.90;99.90;;;;;;7375382;19;20320;-78
2022/06/24 03:16:53;;;;;;;3.67;2.40;;;17.90;99.90;;;;;;7374570;19;20364;-77
2022/06/24 03:19:19;;;;;;;3.10;2.22;;;17.90;99.90;;;;;;7375318;19;20757;-79
2022/06/24 03:21:44;;;;;;;2.77;2.40;;;17.80;99.90;;;;;;7374713;19;20312;-78
2022/06/24 03:24:10;;;;;;;2.50;2.30;;;17.80;99.90;;;;;;7376022;19;20325;-77
2022/06/24 03:26:35;;;;;;;2.63;2.42;;;17.80;99.90;;;;;;7372810;19;20876;-77
2022/06/24 03:29:01;;;;;;;2.27;2.10;;;17.80;99.90;;;;;;7375359;19;20308;-78
2022/06/24 03:31:27;;;;;;;2.40;2.20;;;17.80;99.90;;;;;;7377844;19;20328;-78
2022/06/24 03:33:55;;;;;;;2.63;2.30;;;17.90;99.90;;;;;;7373513;19;20344;-78
2022/06/24 03:36:21;;;;;;;2.97;2.65;;;17.90;99.90;;;;;;7373407;19;20333;-79
2022/06/24 03:38:47;;;;;;;2.83;2.53;;;18.00;99.90;;;;;;7373150;19;20345;-78
2022/06/24 03:41:13;;;;;;;2.20;2.10;;;18.00;99.90;;;;;;7360588;19;20896;-77
2022/06/24 03:43:38;;;;;;;2.80;2.40;;;18.00;99.90;;;;;;7369968;19;20336;-77
2022/06/24 03:46:04;;;;;;;2.40;2.20;;;18.10;99.90;;;;;;7372095;19;20332;-78
2022/06/24 03:48:30;;;;;;;2.50;2.30;;;18.10;99.90;;;;;;7375605;19;20409;-78
2022/06/24 03:50:56;;;;;;;2.60;2.40;;;18.20;99.90;;;;;;7371303;19;20345;-78
2022/06/24 03:53:21;;;;;;;2.35;2.17;;;18.20;99.90;;;;;;7375381;19;20348;-78
2022/06/24 03:55:50;;;;;;;3.30;2.90;;;18.30;99.90;;;;;;7371515;19;20323;-77
2022/06/24 03:58:17;;;;;;;2.88;2.67;;;18.40;99.90;;;;;;7377489;19;21252;-80
2022/06/24 04:00:42;;;;;;;3.53;2.50;;;18.40;99.90;;;;;;7376125;19;20317;-78
2022/06/24 04:03:08;;;;;;;2.90;2.53;;;18.40;99.90;;;;;;7375846;19;20328;-78
2022/06/24 04:05:34;;;;;;;2.40;2.20;;;18.50;99.90;;;;;;7372916;19;20331;-78
2022/06/24 04:07:59;;;;;;;3.33;2.73;;;18.50;99.90;;;;;;7375440;19;21279;-77
2022/06/24 04:10:25;;;;;;;3.20;2.90;;;18.60;99.90;;;;;;7373355;19;21016;-78
2022/06/24 04:12:52;;;;;;;2.85;2.65;;;18.60;99.90;;;;;;7374610;19;20436;-77
2022/06/24 04:15:17;;;;;;;2.95;2.65;;;18.70;99.90;;;;;;7370267;19;20450;-78
2022/06/24 04:17:43;;;;;;;3.17;2.83;;;18.70;99.90;;;;;;7376574;19;20947;-78
2022/06/24 04:20:09;;;;;;;3.10;2.85;;;18.70;99.90;;;;;;7374325;19;20312;-79
2022/06/24 04:22:36;;;;;;;3.30;3.00;;;18.80;99.90;;;;;;7378535;19;20303;-79
2022/06/24 04:25:02;;;;;;;2.75;2.55;;;18.90;99.90;;;;;;7371483;19;20344;-78
2022/06/24 04:27:28;;;;;;;3.08;2.75;;;18.90;99.90;;;;;;7374683;19;20289;-80
2022/06/24 04:30:00;;;;;;;2.60;2.40;;;19.00;99.90;;;;;;7377845;19;20367;-78
2022/06/24 04:32:26;;;;;;;3.08;2.88;;;19.10;99.90;;;;;;7383713;19;20344;-78
2022/06/24 04:34:51;;;;;;;2.70;2.50;;;19.20;99.90;;;;;;7372652;19;20325;-78
2022/06/24 04:37:17;;;;;;;3.22;2.92;;;19.50;99.90;;;;;;7373844;19;20377;-80
2022/06/24 04:39:44;;;;;;;4.23;3.40;;;19.50;99.90;;;;;;7375341;19;20343;-78
2022/06/24 04:42:10;;;;;;;2.85;2.50;;;19.60;99.90;;;;;;7373870;19;20799;-79
2022/06/24 04:44:36;;;;;;;3.20;2.90;;;19.70;99.90;;;;;;7373671;19;20339;-77
2022/06/24 04:47:01;;;;;;;2.65;2.38;;;19.80;99.90;;;;;;7372494;19;20331;-78
2022/06/24 04:49:27;;;;;;;2.97;2.67;;;20.00;99.90;;;;;;7373229;19;20843;-79
2022/06/24 04:51:52;;;;;;;2.87;2.67;;;20.10;99.90;;;;;;7371806;19;20336;-78
2022/06/24 04:54:18;;;;;;;3.55;2.95;;;20.30;99.90;;;;;;7371822;19;20376;-79
2022/06/24 04:56:43;;;;;;;3.27;2.97;;;20.40;99.90;;;;;;7373778;19;20312;-78
2022/06/24 04:59:09;;;;;;;2.90;2.57;;;20.40;99.90;;;;;;7372824;19;20850;-79
2022/06/24 05:01:35;;;;;;;3.25;2.95;;;20.60;99.90;;;;;;7372732;19;20319;-78
2022/06/24 05:04:00;;;;;;;3.00;2.73;;;20.60;99.90;;;;;;7335734;19;20328;-78
2022/06/24 05:06:26;;;;;;;3.90;2.63;;;20.70;99.90;;;;;;7375653;19;20336;-79
2022/06/24 05:08:51;;;;;;;3.50;2.95;;;20.90;99.90;;;;;;7373764;19;20375;-78
2022/06/24 05:11:17;;;;;;;3.50;3.07;;;21.00;99.90;;;;;;7374192;19;20895;-79
2022/06/24 05:13:43;;;;;;;2.43;2.23;;;21.10;99.90;;;;;;7374055;19;20313;-79
2022/06/24 05:16:08;;;;;;;2.70;2.50;;;21.30;99.90;;;;;;7374131;19;20373;-79
2022/06/24 05:18:34;;;;;;;3.00;2.70;;;21.50;99.90;;;;;;7376406;19;20320;-80
2022/06/24 05:21:00;;;;;;;2.67;2.47;;;21.70;99.90;;;;;;7365671;19;20312;-78
2022/06/24 05:23:26;;;;;;;2.42;2.22;;;21.80;99.90;;;;;;7372593;19;20354;-78
2022/06/24 05:25:52;;;;;;;2.80;2.60;;;22.00;99.90;;;;;;7373823;19;20852;-78
2022/06/24 05:28:17;;;;;;;6.70;2.43;;;22.10;99.90;;;;;;7380304;19;20340;-78
2022/06/24 05:30:43;;;;;;;2.50;2.30;;;22.20;99.90;;;;;;7376386;19;20320;-78
2022/06/24 05:33:09;;;;;;;3.78;2.83;;;22.20;99.90;;;;;;7381059;19;20320;-78
2022/06/24 05:35:35;;;;;;;3.00;2.70;;;22.20;99.90;;;;;;7381121;19;20349;-79
2022/06/24 05:38:00;;;;;;;2.92;2.63;;;22.20;99.90;;;;;;7385402;19;20316;-78
2022/06/24 05:40:26;;;;;;;2.80;2.60;;;22.30;99.90;;;;;;7380569;19;20382;-79
2022/06/24 05:42:52;;;;;;;2.85;2.65;;;22.30;99.90;;;;;;7381225;19;20670;-78
2022/06/24 05:45:17;;;;;;;2.63;2.42;;;22.30;99.90;;;;;;7379739;19;20879;-77
2022/06/24 05:47:43;;;;;;;3.43;2.53;;;22.50;99.90;;;;;;7379359;19;20442;-77
2022/06/24 05:50:09;;;;;;;2.92;2.70;;;22.70;99.90;;;;;;7378536;19;20385;-77
2022/06/24 05:55:18;;;;;;;2.80;2.60;;;23.00;99.90;;;;;;7277453;19;2004403;-78
2022/06/24 05:57:44;;;;;;;2.70;2.50;;;23.20;99.90;;;;;;7380636;19;20317;-78
2022/06/24 06:00:10;;;;;;;3.10;2.80;;;23.20;99.90;;;;;;7376470;19;20325;-78
2022/06/24 06:02:35;;;;;;;3.20;2.90;;;23.30;99.90;;;;;;7380478;19;20316;-79
2022/06/24 06:05:01;;;;;;;2.63;2.43;;;23.40;99.90;;;;;;7377932;19;20321;-77
2022/06/24 06:07:27;;;;;;;4.20;3.10;;;23.50;99.90;;;;;;7378078;19;20686;-78
2022/06/24 06:09:52;;;;;;;3.50;3.20;;;23.70;99.90;;;;;;7381450;19;20352;-78
2022/06/24 06:12:18;;;;;;;3.33;3.03;;;23.70;99.90;;;;;;7377755;19;20341;-79
2022/06/24 06:14:44;;;;;;;3.30;3.00;;;23.90;99.90;;;;;;7382872;19;20316;-78
2022/06/24 06:17:10;;;;;;;5.30;3.40;;;24.10;99.90;;;;;;7378570;19;20332;-78
2022/06/24 06:19:36;;;;;;;4.10;3.70;;;24.20;99.90;;;;;;7376803;19;20372;-78
2022/06/24 06:22:02;;;;;;;3.47;3.17;;;24.20;99.90;;;;;;7376981;19;20916;-77
2022/06/24 06:24:31;;;;;;;3.40;3.10;;;24.30;99.90;;;;;;7380693;19;20451;-79
2022/06/24 06:26:57;;;;;;;4.57;3.30;;;24.50;99.90;;;;;;7377080;19;20329;-78
2022/06/24 06:29:23;;;;;;;3.50;3.20;;;24.60;99.90;;;;;;7376393;19;20376;-78
2022/06/24 06:31:50;;;;;;;7.40;3.10;;;24.80;99.90;;;;;;7376640;19;20328;-78
2022/06/24 06:34:16;;;;;;;3.53;3.22;;;24.90;99.90;;;;;;7378102;19;20337;-79
2022/06/24 06:36:42;;;;;;;3.20;2.90;;;25.00;99.90;;;;;;7378040;19;20352;-78
2022/06/24 06:39:07;;;;;;;3.37;3.07;;;25.10;99.90;;;;;;7376233;19;20451;-79
2022/06/24 06:41:33;;;;;;;3.08;2.83;;;25.10;99.90;;;;;;7376974;19;20323;-78
2022/06/24 06:43:58;;;;;;;4.30;3.17;;;25.30;99.90;;;;;;7380861;19;20300;-79
2022/06/24 06:46:24;;;;;;;3.87;3.47;;;25.50;99.90;;;;;;7378628;19;20352;-77
2022/06/24 06:48:50;;;;;;;3.60;3.20;;;25.50;99.90;;;;;;7374933;19;20345;-79
2022/06/24 06:51:15;;;;;;;3.70;3.40;;;25.40;99.90;;;;;;7376251;19;20353;-77
2022/06/24 06:53:41;;;;;;;3.60;3.17;;;25.40;99.90;;;;;;7378244;19;20336;-78
2022/06/24 06:56:06;;;;;;;3.10;2.80;;;25.50;99.90;;;;;;7378153;19;20338;-77
2022/06/24 06:58:32;;;;;;;3.28;2.97;;;25.70;99.90;;;;;;7378841;19;20328;-78
2022/06/24 07:00:57;;;;;;;4.43;3.10;;;26.00;99.90;;;;;;7374569;19;20325;-78
2022/06/24 07:03:23;;;;;;;4.07;3.33;;;26.10;99.90;;;;;;7379408;19;20345;-78
2022/06/24 07:05:50;;;;;;;4.40;3.10;;;26.10;99.90;;;;;;7377590;19;20324;-78
2022/06/24 07:08:16;;;;;;;3.83;3.00;;;26.20;99.60;;;;;;7378073;19;20336;-78
2022/06/24 07:10:42;;;;;;;3.53;3.17;;;26.50;99.90;;;;;;7374236;19;20899;-77
2022/06/24 07:13:08;;;;;;;3.75;2.95;;;26.80;99.10;;;;;;7377603;19;20393;-78
2022/06/24 07:15:33;;;;;;;3.53;3.23;;;27.00;98.60;;;;;;7377672;19;20415;-78
2022/06/24 07:17:59;;;;;;;3.10;2.90;;;27.10;97.90;;;;;;7378460;19;20864;-77
2022/06/24 07:20:25;;;;;;;3.03;2.72;;;27.20;97.50;;;;;;7377749;19;20345;-77
2022/06/24 07:22:50;;;;;;;3.00;2.80;;;27.40;96.90;;;;;;7377250;19;20312;-78
2022/06/24 07:25:16;;;;;;;3.30;3.00;;;27.50;96.30;;;;;;7377838;19;20313;-79
2022/06/24 07:27:41;;;;;;;5.13;3.00;;;27.40;95.10;;;;;;7376840;19;20428;-78
2022/06/24 07:30:07;;;;;;;4.05;3.33;;;27.50;95.90;;;;;;7372932;19;20341;-78
2022/06/24 07:32:33;;;;;;;3.20;2.90;;;27.70;94.50;;;;;;7375177;19;20312;-78
2022/06/24 07:34:58;;;;;;;3.38;3.05;;;27.90;94.60;;;;;;7377005;19;20312;-78
2022/06/24 07:37:24;;;;;;;5.05;3.03;;;28.10;94.70;;;;;;7376099;19;20313;-78
2022/06/24 07:39:50;;;;;;;2.83;2.63;;;28.10;93.50;;;;;;7374010;19;20848;-78
2022/06/24 07:42:15;;;;;;;3.47;3.17;;;28.30;94.30;;;;;;7377628;19;20357;-77
2022/06/24 07:44:43;;;;;;;3.60;2.60;;;28.60;93.40;;;;;;7377214;19;20319;-78
2022/06/24 07:47:09;;;;;;;3.90;3.00;;;28.80;93.40;;;;;;7377409;19;20331;-78
2022/06/24 07:49:34;;;;;;;2.88;2.53;;;29.20;92.40;;;;;;7374463;19;20328;-78
2022/06/24 07:52:00;;;;;;;2.58;2.38;;;29.30;91.40;;;;;;7375987;19;20349;-78
2022/06/24 07:54:26;;;;;;;3.47;2.97;;;29.50;91.10;;;;;;7376130;19;20329;-78
2022/06/24 07:56:57;;;;;;;2.70;2.50;;;29.70;89.10;;;;;;7375885;19;20947;-78
2022/06/24 07:59:27;;;;;;;2.88;2.60;;;29.70;87.50;;;;;;7375552;19;20340;-78
2022/06/24 08:01:53;;;;;;;2.43;2.23;;;29.90;84.40;;;;;;7375489;19;20345;-78
2022/06/24 08:04:20;;;;;;;2.63;2.42;;;29.90;84.20;;;;;;7376741;19;21002;-78
2022/06/24 08:06:46;;;;;;;2.67;2.47;;;30.00;83.80;;;;;;7377954;19;20882;-78
2022/06/24 08:09:12;;;;;;;2.42;2.13;;;30.20;84.10;;;;;;7385491;19;20377;-77
2022/06/24 08:11:38;;;;;;;2.92;2.58;;;30.50;85.60;;;;;;7387557;19;20336;-77
2022/06/24 08:14:03;;;;;;;3.27;2.30;;;30.90;79.50;;;;;;7385719;19;20840;-78
2022/06/24 08:16:29;;;;;;;2.93;2.70;;;31.00;80.30;;;;;;7387205;19;20336;-77
2022/06/24 08:18:55;;;;;;;2.50;2.30;;;31.00;80.00;;;;;;7386818;19;20348;-79
2022/06/24 08:21:20;;;;;;;2.67;2.20;;;30.90;75.30;;;;;;7388420;19;20400;-77
2022/06/24 08:23:46;;;;;;;2.15;2.05;;;30.90;79.00;;;;;;7385920;19;20317;-79
2022/06/24 08:26:12;;;;;;;2.65;2.30;;;31.20;78.80;;;;;;7385296;19;20305;-79
2022/06/24 08:28:37;;;;;;;2.70;2.40;;;30.90;74.20;;;;;;7386123;19;20316;-77
2022/06/24 08:31:03;;;;;;;2.50;2.30;;;31.00;76.10;;;;;;7386645;19;20401;-79
2022/06/24 08:33:29;;;;;;;5.00;2.30;;;31.10;75.90;;;;;;7386950;19;20633;-79
2022/06/24 08:35:54;;;;;;;1.90;1.77;;;30.90;72.00;;;;;;7386713;19;20321;-78
2022/06/24 08:38:20;;;;;;;4.17;2.47;;;31.40;71.10;;;;;;7385653;19;20872;-78
2022/06/24 08:40:49;;;;;;;1.90;1.80;;;31.40;66.90;;;;;;7384144;19;20400;-77
2022/06/24 08:43:15;;;;;;;3.97;2.10;;;31.60;70.00;;;;;;7386122;19;20342;-78
2022/06/24 08:45:41;;;;;;;2.50;2.30;;;31.90;71.20;;;;;;7377615;19;20317;-77
2022/06/24 08:48:07;;;;;;;2.72;2.13;;;32.10;68.50;;;;;;7372144;19;20333;-77
2022/06/24 08:50:33;;;;;;;2.60;2.38;;;32.10;69.30;;;;;;7371940;19;20304;-77
2022/06/24 08:52:58;;;;;;;2.97;2.27;;;32.40;66.50;;;;;;7376572;19;20323;-77
2022/06/24 08:55:24;;;;;;;2.37;2.17;;;32.30;63.10;;;;;;7377011;19;20332;-77
2022/06/24 08:57:50;;;;;;;1.98;1.88;;;32.40;64.60;;;;;;7378390;19;20309;-78
2022/06/24 09:00:18;;;;;;;2.10;2.00;;;32.60;62.80;;;;;;7373121;19;20440;-78
2022/06/24 09:02:44;;;;;;;2.72;2.22;;;32.60;60.60;;;;;;7379397;19;20313;-77
2022/06/24 09:05:10;;;;;;;3.47;2.20;;;32.60;60.50;;;;;;7381614;19;20415;-78
2022/06/24 09:07:36;;;;;;;1.90;1.80;;;32.40;61.30;;;;;;7383289;19;20350;-78
2022/06/24 09:10:12;;;;;;;2.30;2.10;;;32.40;60.60;;;;;;7377824;19;20603;-77
2022/06/24 09:12:41;;;;;;;2.22;2.03;;;32.40;60.50;;;;;;7378558;19;20319;-78
2022/06/24 09:15:08;;;;;;;2.23;2.07;;;32.80;60.00;;;;;;7378843;19;20309;-77
2022/06/24 09:17:34;;;;;;;2.08;1.98;;;32.60;57.40;;;;;;7380295;19;20319;-79
2022/06/24 09:20:07;;;;;;;5.00;2.10;;;33.00;59.20;;;;;;7379782;19;20394;-78
2022/06/24 09:22:33;;;;;;;1.85;1.75;;;33.30;59.60;;;;;;7380172;19;20311;-78
2022/06/24 09:24:59;;;;;;;2.20;1.93;;;33.30;59.00;;;;;;7381062;19;20321;-78
2022/06/24 09:27:25;;;;;;;2.33;2.13;;;32.80;55.20;;;;;;7381016;19;20320;-78
2022/06/24 09:29:51;;;;;;;1.70;1.60;;;32.50;55.00;;;;;;7377243;19;20791;-78
2022/06/24 09:32:16;;;;;;;1.88;1.77;;;32.90;57.00;;;;;;7379934;19;20337;-78
2022/06/24 09:35:07;;;;;;;2.50;1.60;;;33.30;56.40;;;;;;7378571;19;20312;-78
2022/06/24 09:37:43;;;;;;;2.08;1.75;;;33.10;55.40;;;;;;7380205;19;20404;-77
2022/06/24 09:40:15;;;;;;;2.80;1.90;;;33.00;53.30;;;;;;7378729;19;20329;-77
2022/06/24 09:42:40;;;;;;;2.60;2.10;;;33.20;54.10;;;;;;7276534;19;2004428;-78
2022/06/24 09:45:06;;;;;;;1.97;1.87;;;33.30;52.90;;;;;;7381151;19;20325;-79
2022/06/24 09:47:36;;;;;;;2.17;1.98;;;33.70;54.80;;;;;;7380633;19;20376;-77
2022/06/24 09:50:02;;;;;;;2.00;1.80;;;33.30;51.10;;;;;;7376170;19;20317;-77
2022/06/24 09:52:28;;;;;;;1.90;1.80;;;33.60;52.80;;;;;;7381367;19;20337;-76
2022/06/24 09:54:53;;;;;;;2.30;1.80;;;33.90;53.10;;;;;;7376594;19;20698;-77
2022/06/24 09:57:19;;;;;;;6.07;2.33;;;34.40;53.70;;;;;;7380012;19;20388;-77
2022/06/24 10:02:30;;;;;;;3.60;1.80;;;34.70;52.40;;;;;;7378674;19;20316;-76
2022/06/24 10:04:55;;;;;;;2.87;1.83;;;35.00;51.80;;;;;;7379946;19;20337;-76
2022/06/24 10:07:23;;;;;;;2.00;1.90;;;35.10;51.00;;;;;;7379276;19;20308;-76
2022/06/24 10:09:48;;;;;;;1.95;1.85;;;35.50;51.80;;;;;;7377478;19;20425;-76
2022/06/24 10:12:15;;;;;;;2.38;1.80;;;34.80;48.90;;;;;;7377098;19;20372;-76
2022/06/24 10:14:40;;;;;;;1.90;1.80;;;34.80;51.70;;;;;;7378754;19;20320;-76
2022/06/24 10:17:06;;;;;;;1.90;1.80;;;34.50;50.90;;;;;;7377495;19;20316;-75
2022/06/24 10:19:31;;;;;;;3.00;2.30;;;34.80;51.30;;;;;;7376171;19;20362;-76
2022/06/24 10:21:57;;;;;;;2.67;2.00;;;34.50;51.20;;;;;;7378102;19;20440;-76
2022/06/24 10:24:22;;;;;;;2.10;1.90;;;34.50;51.30;;;;;;7379139;19;20325;-76
2022/06/24 10:26:51;;;;;;;2.77;2.40;;;34.80;54.10;;;;;;7375149;19;20738;-76
2022/06/24 10:29:18;;;;;;;3.03;2.07;;;34.80;50.10;;;;;;7375644;19;20878;-76
2022/06/24 10:31:53;;;;;;;1.95;1.80;;;34.90;48.70;;;;;;7374315;19;20332;-75
2022/06/24 10:34:28;;;;;;;2.70;2.00;;;35.30;51.40;;;;;;7381589;19;20355;-76
2022/06/24 10:36:56;;;;;;;1.80;1.70;;;35.60;50.30;;;;;;7378426;19;20334;-76
2022/06/24 10:39:23;;;;;;;2.05;1.90;;;36.10;51.50;;;;;;7380755;19;20387;-76
2022/06/24 10:42:01;;;;;;;3.90;2.10;;;36.10;50.30;;;;;;7377748;19;20384;-76
2022/06/24 10:44:29;;;;;;;1.88;1.77;;;35.80;49.80;;;;;;7379580;19;20378;-76
2022/06/24 10:47:14;;;;;;;2.00;1.85;;;35.10;48.40;;;;;;7378739;19;20327;-76
2022/06/24 10:49:52;;;;;;;2.47;1.85;;;34.80;49.20;;;;;;7378217;19;20326;-75
2022/06/24 10:52:48;;;;;;;2.17;1.97;;;34.20;50.70;;;;;;7271482;19;2006094;-77
2022/06/24 10:55:28;;;;;;;3.25;2.08;;;34.20;51.30;;;;;;7275336;19;2004659;-76
2022/06/24 10:57:57;;;;;;;2.50;2.00;;;34.40;51.10;;;;;;7379594;19;20415;-76
2022/06/24 11:00:24;;;;;;;2.20;2.00;;;33.90;47.90;;;;;;7373123;19;20481;-76
2022/06/24 11:02:56;;;;;;;1.83;1.73;;;34.50;51.20;;;;;;7374119;19;20328;-75
2022/06/24 11:05:26;;;;;;;1.90;1.80;;;35.00;51.60;;;;;;7375577;19;20325;-77
2022/06/24 11:07:51;;;;;;;1.98;1.88;;;35.40;47.60;;;;;;7377880;19;20387;-75
2022/06/24 11:10:43;;;;;;;2.30;2.10;;;35.90;47.70;;;;;;7375723;19;20401;-76
2022/06/24 11:13:10;;;;;;;2.28;2.05;;;36.00;47.40;;;;;;7372425;19;20329;-76
2022/06/24 11:15:49;;;;;;;2.20;2.00;;;36.10;47.20;;;;;;7375121;19;20320;-75
2022/06/24 11:18:19;;;;;;;2.25;1.80;;;35.80;47.70;;;;;;7275561;19;2004487;-76
2022/06/24 11:21:17;;;;;;;3.88;2.00;;;35.50;45.30;;;;;;7375342;19;20324;-76
2022/06/24 11:23:42;;;;;;;1.75;1.65;;;35.60;47.00;;;;;;7273773;19;2006256;-75
2022/06/24 11:26:15;;;;;;;1.77;1.60;;;36.10;48.50;;;;;;7376906;19;20332;-76
2022/06/24 11:28:42;;;;;;;2.95;1.85;;;36.40;46.40;;;;;;7376488;19;20315;-76
2022/06/24 11:31:24;;;;;;;1.67;1.57;;;36.30;47.00;;;;;;7373742;19;20348;-75
2022/06/24 11:34:11;;;;;;;2.42;1.67;;;35.80;44.00;;;;;;7274658;19;2004347;-75
2022/06/24 11:36:37;;;;;;;2.80;1.73;;;35.30;44.40;;;;;;7375403;19;20645;-75
2022/06/24 11:39:04;;;;;;;1.70;1.60;;;35.20;44.10;;;;;;7376325;19;20313;-76
2022/06/24 11:41:32;;;;;;;2.20;1.70;;;34.90;45.30;;;;;;7371207;19;20344;-75
2022/06/24 11:43:57;;;;;;;1.60;1.50;;;34.20;44.60;;;;;;7377806;19;20373;-75
2022/06/24 11:46:23;;;;;;;1.87;1.70;;;34.40;46.20;;;;;;7376373;19;20332;-75
2022/06/24 11:48:49;;;;;;;1.80;1.70;;;34.60;46.70;;;;;;7374379;19;20329;-76
2022/06/24 11:51:20;;;;;;;1.70;1.60;;;34.80;46.20;;;;;;7373132;19;20377;-76
2022/06/24 11:53:57;;;;;;;2.63;2.05;;;35.30;47.70;;;;;;7376376;19;20340;-75
2022/06/24 11:56:28;;;;;;;2.47;1.90;;;35.20;46.40;;;;;;7376013;19;20653;-75
2022/06/24 11:58:57;;;;;;;1.90;1.80;;;35.60;46.40;;;;;;7376272;19;20356;-76
2022/06/24 12:01:23;;;;;;;3.00;2.10;;;35.50;45.10;;;;;;7371356;19;20380;-76
2022/06/24 12:03:50;;;;;;;1.95;1.80;;;35.60;45.30;;;;;;7374653;19;20316;-75
2022/06/24 12:06:16;;;;;;;1.85;1.73;;;35.60;45.80;;;;;;7374573;19;20345;-75
2022/06/24 12:08:42;;;;;;;2.38;1.83;;;35.90;46.20;;;;;;7374102;19;20308;-77
2022/06/24 12:11:15;;;;;;;1.70;1.60;;;36.40;46.10;;;;;;7372998;19;20328;-75
2022/06/24 12:13:41;;;;;;;3.90;1.90;;;37.00;47.60;;;;;;7375651;19;20300;-76
2022/06/24 12:16:07;;;;;;;1.80;1.70;;;36.80;44.20;;;;;;7376681;19;20799;-76
2022/06/24 12:18:32;;;;;;;1.80;1.70;;;36.90;44.10;;;;;;7375596;19;20340;-76
2022/06/24 12:21:03;;;;;;;2.10;1.90;;;35.80;43.60;;;;;;7376020;19;20722;-76
2022/06/24 12:23:39;;;;;;;1.70;1.60;;;35.00;45.10;;;;;;7375069;19;20434;-75
2022/06/24 12:26:18;;;;;;;2.00;1.90;;;35.50;45.30;;;;;;7375458;19;20395;-76
2022/06/24 12:28:45;;;;;;;4.50;2.10;;;35.90;46.00;;;;;;7271922;19;2005798;-76
2022/06/24 12:31:11;;;;;;;1.90;1.80;;;35.50;45.60;;;;;;7371748;19;20349;-76
2022/06/24 12:33:52;;;;;;;2.45;1.80;;;36.10;46.30;;;;;;7374768;19;20320;-75
2022/06/24 12:36:19;;;;;;;2.50;2.30;;;36.40;45.20;;;;;;7269845;19;2005627;-76
2022/06/24 12:38:45;;;;;;;1.90;1.60;;;36.80;46.00;;;;;;7374350;19;20361;-76
2022/06/24 12:41:12;;;;;;;2.58;1.88;;;37.30;45.60;;;;;;7372731;19;20680;-75
2022/06/24 12:43:56;;;;;;;2.00;1.83;;;37.40;45.20;;;;;;7374791;19;20308;-77
2022/06/24 12:46:22;;;;;;;1.88;1.77;;;37.30;44.60;;;;;;7271962;19;2004410;-76
2022/06/24 12:51:47;;;;;;;1.95;1.75;;;36.90;42.50;;;;;;7371787;19;20396;-75
2022/06/24 12:54:15;;;;;;;1.95;1.63;;;37.30;44.40;;;;;;7373271;19;20332;-76
2022/06/24 12:56:43;;;;;;;1.90;1.80;;;37.10;45.00;;;;;;7371390;19;20324;-75
2022/06/24 12:59:08;;;;;;;2.70;2.13;;;37.80;46.00;;;;;;7374316;19;20914;-76
2022/06/24 13:01:46;;;;;;;2.13;1.80;;;37.80;41.50;;;;;;7371211;19;20412;-76